Radlett, United Kingdom
Current Conditions -  °F | °C
As of 2:50 AM on Tuesday 27 Jan 2015 (Local Time) from EGWU Reporting Station
Broken Clouds Broken Clouds  
Wind Chill: 36°   Ceiling: 22000
Heat Index: 36°   Visibility: 6mi
Dew Point: 32°   Wind: 3mph
Humidity: 87%   Direction: 320°NW
Pressure: 30.36"   Gusts: NA
Location:  51.69°N, 0.32°W
Report Text: EGWU 270250Z AUTO 32003KT 9999 // BKN220/// 02/M00 Q1028
Loading
Personal Weather Stations






























Interactive Weather Map New forecast layout! Learn more

10-Day Weather Forecast

Advertisements
Track Severe Weather on mobile